sensor_id;sensor_type;location;lat;lon;timestamp;P1;durP1;ratioP1;P2;durP2;ratioP2
24617;SDS011;12762;51.730;5.356;2023-02-26T00:01:36;6.97;;;1.97;;
24617;SDS011;12762;51.730;5.356;2023-02-26T00:04:03;6.13;;;1.90;;
24617;SDS011;12762;51.730;5.356;2023-02-26T00:06:33;4.87;;;1.70;;
24617;SDS011;12762;51.730;5.356;2023-02-26T00:09:02;10.07;;;2.27;;
24617;SDS011;12762;51.730;5.356;2023-02-26T00:11:31;6.57;;;1.87;;
24617;SDS011;12762;51.730;5.356;2023-02-26T00:13:58;8.67;;;2.20;;
24617;SDS011;12762;51.730;5.356;2023-02-26T00:18:58;9.50;;;2.27;;
24617;SDS011;12762;51.730;5.356;2023-02-26T00:21:27;9.00;;;2.37;;
24617;SDS011;12762;51.730;5.356;2023-02-26T00:23:55;11.97;;;2.70;;
24617;SDS011;12762;51.730;5.356;2023-02-26T00:26:25;5.80;;;1.83;;
24617;SDS011;12762;51.730;5.356;2023-02-26T00:28:54;7.87;;;2.20;;
24617;SDS011;12762;51.730;5.356;2023-02-26T00:31:21;8.43;;;3.10;;
24617;SDS011;12762;51.730;5.356;2023-02-26T00:33:52;8.70;;;2.27;;
24617;SDS011;12762;51.730;5.356;2023-02-26T00:36:22;5.97;;;2.00;;
24617;SDS011;12762;51.730;5.356;2023-02-26T00:41:59;3.40;;;1.97;;
24617;SDS011;12762;51.730;5.356;2023-02-26T00:44:32;7.57;;;2.13;;
24617;SDS011;12762;51.730;5.356;2023-02-26T00:47:02;10.70;;;2.50;;
24617;SDS011;12762;51.730;5.356;2023-02-26T00:49:53;5.23;;;1.83;;
24617;SDS011;12762;51.730;5.356;2023-02-26T00:55:14;7.87;;;2.17;;
24617;SDS011;12762;51.730;5.356;2023-02-26T00:57:48;4.37;;;2.07;;
24617;SDS011;12762;51.730;5.356;2023-02-26T01:00:18;6.40;;;1.93;;
24617;SDS011;12762;51.730;5.356;2023-02-26T01:02:46;6.80;;;1.83;;
24617;SDS011;12762;51.730;5.356;2023-02-26T01:05:13;4.47;;;1.93;;
24617;SDS011;12762;51.730;5.356;2023-02-26T01:08:08;4.27;;;2.17;;
24617;SDS011;12762;51.730;5.356;2023-02-26T01:10:40;6.67;;;1.60;;
24617;SDS011;12762;51.730;5.356;2023-02-26T01:13:10;5.43;;;1.97;;
24617;SDS011;12762;51.730;5.356;2023-02-26T01:15:41;5.23;;;1.60;;
24617;SDS011;12762;51.730;5.356;2023-02-26T01:18:15;3.83;;;1.50;;
24617;SDS011;12762;51.730;5.356;2023-02-26T01:20:50;7.80;;;1.90;;
24617;SDS011;12762;51.730;5.356;2023-02-26T01:23:25;7.90;;;2.00;;
24617;SDS011;12762;51.730;5.356;2023-02-26T01:25:58;5.77;;;2.30;;
24617;SDS011;12762;51.730;5.356;2023-02-26T01:28:29;5.63;;;1.90;;
24617;SDS011;12762;51.730;5.356;2023-02-26T01:30:57;6.43;;;1.90;;
24617;SDS011;12762;51.730;5.356;2023-02-26T01:33:41;6.53;;;1.60;;
24617;SDS011;12762;51.730;5.356;2023-02-26T01:36:22;5.17;;;1.73;;
24617;SDS011;12762;51.730;5.356;2023-02-26T01:44:21;4.53;;;1.50;;
24617;SDS011;12762;51.730;5.356;2023-02-26T01:49:36;6.67;;;1.60;;
24617;SDS011;12762;51.730;5.356;2023-02-26T01:52:04;8.87;;;1.70;;
24617;SDS011;12762;51.730;5.356;2023-02-26T01:54:51;6.27;;;1.50;;
24617;SDS011;12762;51.730;5.356;2023-02-26T01:57:18;6.97;;;1.37;;
24617;SDS011;12762;51.730;5.356;2023-02-26T01:59:48;4.40;;;1.60;;
24617;SDS011;12762;51.730;5.356;2023-02-26T02:02:18;8.30;;;1.77;;
24617;SDS011;12762;51.730;5.356;2023-02-26T02:04:48;7.37;;;1.83;;
24617;SDS011;12762;51.730;5.356;2023-02-26T02:07:15;6.90;;;1.87;;
24617;SDS011;12762;51.730;5.356;2023-02-26T02:09:43;7.20;;;1.73;;
24617;SDS011;12762;51.730;5.356;2023-02-26T02:20:56;3.53;;;1.00;;
24617;SDS011;12762;51.730;5.356;2023-02-26T02:23:46;5.77;;;1.40;;
24617;SDS011;12762;51.730;5.356;2023-02-26T02:29:26;3.53;;;1.27;;
24617;SDS011;12762;51.730;5.356;2023-02-26T02:32:00;6.07;;;1.67;;
24617;SDS011;12762;51.730;5.356;2023-02-26T02:34:43;4.70;;;1.20;;
24617;SDS011;12762;51.730;5.356;2023-02-26T02:37:19;5.20;;;1.23;;
24617;SDS011;12762;51.730;5.356;2023-02-26T02:40:14;5.83;;;1.30;;
24617;SDS011;12762;51.730;5.356;2023-02-26T02:42:55;5.17;;;1.73;;
24617;SDS011;12762;51.730;5.356;2023-02-26T02:45:29;5.43;;;1.20;;
24617;SDS011;12762;51.730;5.356;2023-02-26T02:48:22;7.33;;;1.70;;
24617;SDS011;12762;51.730;5.356;2023-02-26T02:50:57;2.63;;;1.27;;
24617;SDS011;12762;51.730;5.356;2023-02-26T02:56:41;4.17;;;0.97;;
24617;SDS011;12762;51.730;5.356;2023-02-26T02:59:12;3.73;;;1.07;;
24617;SDS011;12762;51.730;5.356;2023-02-26T03:01:47;5.30;;;1.33;;
24617;SDS011;12762;51.730;5.356;2023-02-26T03:04:19;4.90;;;1.27;;
24617;SDS011;12762;51.730;5.356;2023-02-26T03:06:46;5.13;;;1.00;;
24617;SDS011;12762;51.730;5.356;2023-02-26T03:09:15;5.30;;;0.80;;
24617;SDS011;12762;51.730;5.356;2023-02-26T03:11:41;5.83;;;1.03;;
24617;SDS011;12762;51.730;5.356;2023-02-26T03:14:08;5.97;;;1.40;;
24617;SDS011;12762;51.730;5.356;2023-02-26T03:19:36;3.00;;;1.13;;
24617;SDS011;12762;51.730;5.356;2023-02-26T03:22:14;4.07;;;1.13;;
24617;SDS011;12762;51.730;5.356;2023-02-26T03:24:50;4.60;;;1.20;;
24617;SDS011;12762;51.730;5.356;2023-02-26T03:27:34;3.40;;;0.90;;
24617;SDS011;12762;51.730;5.356;2023-02-26T03:33:23;8.73;;;1.20;;
24617;SDS011;12762;51.730;5.356;2023-02-26T03:35:34;9.37;;;1.23;;
24617;SDS011;12762;51.730;5.356;2023-02-26T03:38:08;2.93;;;1.07;;
24617;SDS011;12762;51.730;5.356;2023-02-26T03:40:47;8.03;;;1.20;;
24617;SDS011;12762;51.730;5.356;2023-02-26T03:43:28;5.67;;;1.10;;
24617;SDS011;12762;51.730;5.356;2023-02-26T03:46:00;9.20;;;1.23;;
24617;SDS011;12762;51.730;5.356;2023-02-26T03:48:32;5.40;;;1.17;;
24617;SDS011;12762;51.730;5.356;2023-02-26T03:51:06;7.57;;;0.93;;
24617;SDS011;12762;51.730;5.356;2023-02-26T03:53:38;4.10;;;0.93;;
24617;SDS011;12762;51.730;5.356;2023-02-26T03:56:19;7.27;;;0.70;;
24617;SDS011;12762;51.730;5.356;2023-02-26T03:59:00;6.27;;;1.03;;
24617;SDS011;12762;51.730;5.356;2023-02-26T04:01:32;8.03;;;0.80;;
24617;SDS011;12762;51.730;5.356;2023-02-26T04:06:53;2.47;;;1.00;;
24617;SDS011;12762;51.730;5.356;2023-02-26T04:09:21;3.67;;;1.00;;
24617;SDS011;12762;51.730;5.356;2023-02-26T04:11:48;6.67;;;1.17;;
24617;SDS011;12762;51.730;5.356;2023-02-26T04:14:17;4.50;;;0.80;;
24617;SDS011;12762;51.730;5.356;2023-02-26T04:16:44;5.80;;;1.33;;
24617;SDS011;12762;51.730;5.356;2023-02-26T04:19:11;8.63;;;1.47;;
24617;SDS011;12762;51.730;5.356;2023-02-26T04:21:39;9.87;;;1.27;;
24617;SDS011;12762;51.730;5.356;2023-02-26T04:24:06;2.80;;;1.00;;
24617;SDS011;12762;51.730;5.356;2023-02-26T04:26:33;7.77;;;1.43;;
24617;SDS011;12762;51.730;5.356;2023-02-26T04:28:59;4.23;;;0.93;;
24617;SDS011;12762;51.730;5.356;2023-02-26T04:31:26;3.63;;;1.03;;
24617;SDS011;12762;51.730;5.356;2023-02-26T04:33:53;6.23;;;1.10;;
24617;SDS011;12762;51.730;5.356;2023-02-26T04:36:20;5.07;;;1.00;;
24617;SDS011;12762;51.730;5.356;2023-02-26T04:38:47;5.40;;;1.00;;
24617;SDS011;12762;51.730;5.356;2023-02-26T04:41:14;7.30;;;1.00;;
24617;SDS011;12762;51.730;5.356;2023-02-26T04:43:41;7.03;;;1.00;;
24617;SDS011;12762;51.730;5.356;2023-02-26T04:46:08;6.10;;;1.00;;
24617;SDS011;12762;51.730;5.356;2023-02-26T04:48:35;1.80;;;0.50;;
24617;SDS011;12762;51.730;5.356;2023-02-26T04:51:02;3.43;;;0.60;;
24617;SDS011;12762;51.730;5.356;2023-02-26T04:53:29;4.23;;;1.03;;
24617;SDS011;12762;51.730;5.356;2023-02-26T04:55:56;4.13;;;0.70;;
24617;SDS011;12762;51.730;5.356;2023-02-26T04:58:22;1.60;;;0.40;;
24617;SDS011;12762;51.730;5.356;2023-02-26T05:00:50;3.30;;;0.50;;
24617;SDS011;12762;51.730;5.356;2023-02-26T05:03:21;2.73;;;0.70;;
24617;SDS011;12762;51.730;5.356;2023-02-26T05:05:48;2.10;;;0.70;;
24617;SDS011;12762;51.730;5.356;2023-02-26T05:08:15;3.10;;;0.87;;
24617;SDS011;12762;51.730;5.356;2023-02-26T05:10:42;4.27;;;0.80;;
24617;SDS011;12762;51.730;5.356;2023-02-26T05:13:09;7.67;;;0.90;;
24617;SDS011;12762;51.730;5.356;2023-02-26T05:15:36;2.97;;;0.70;;
24617;SDS011;12762;51.730;5.356;2023-02-26T05:18:03;5.40;;;1.13;;
24617;SDS011;12762;51.730;5.356;2023-02-26T05:20:29;7.90;;;1.30;;
24617;SDS011;12762;51.730;5.356;2023-02-26T05:22:56;2.13;;;0.60;;
24617;SDS011;12762;51.730;5.356;2023-02-26T05:25:23;2.63;;;0.60;;
24617;SDS011;12762;51.730;5.356;2023-02-26T05:27:50;2.83;;;0.73;;
24617;SDS011;12762;51.730;5.356;2023-02-26T05:30:18;3.00;;;0.67;;
24617;SDS011;12762;51.730;5.356;2023-02-26T05:32:49;3.40;;;0.60;;
24617;SDS011;12762;51.730;5.356;2023-02-26T05:35:16;4.97;;;0.57;;
24617;SDS011;12762;51.730;5.356;2023-02-26T05:37:43;4.57;;;0.90;;
24617;SDS011;12762;51.730;5.356;2023-02-26T05:40:10;1.40;;;0.37;;
24617;SDS011;12762;51.730;5.356;2023-02-26T05:42:38;2.93;;;0.50;;
24617;SDS011;12762;51.730;5.356;2023-02-26T05:45:05;4.50;;;0.87;;
24617;SDS011;12762;51.730;5.356;2023-02-26T05:47:33;5.17;;;0.70;;
24617;SDS011;12762;51.730;5.356;2023-02-26T05:50:00;5.40;;;0.90;;
24617;SDS011;12762;51.730;5.356;2023-02-26T05:52:27;6.03;;;0.83;;
24617;SDS011;12762;51.730;5.356;2023-02-26T05:54:57;3.33;;;0.90;;
24617;SDS011;12762;51.730;5.356;2023-02-26T05:57:24;1.40;;;0.53;;
24617;SDS011;12762;51.730;5.356;2023-02-26T05:59:53;1.67;;;0.70;;
24617;SDS011;12762;51.730;5.356;2023-02-26T06:02:20;2.87;;;0.53;;
24617;SDS011;12762;51.730;5.356;2023-02-26T06:04:47;3.70;;;0.70;;
24617;SDS011;12762;51.730;5.356;2023-02-26T06:07:14;2.33;;;0.93;;
24617;SDS011;12762;51.730;5.356;2023-02-26T06:09:41;4.63;;;0.90;;
24617;SDS011;12762;51.730;5.356;2023-02-26T06:12:08;7.57;;;1.17;;
24617;SDS011;12762;51.730;5.356;2023-02-26T06:14:35;5.90;;;1.07;;
24617;SDS011;12762;51.730;5.356;2023-02-26T06:17:02;2.83;;;0.90;;
24617;SDS011;12762;51.730;5.356;2023-02-26T06:19:29;3.37;;;0.80;;
24617;SDS011;12762;51.730;5.356;2023-02-26T06:21:56;1.00;;;0.43;;
24617;SDS011;12762;51.730;5.356;2023-02-26T06:24:23;6.00;;;1.00;;
24617;SDS011;12762;51.730;5.356;2023-02-26T06:26:51;2.87;;;0.90;;
24617;SDS011;12762;51.730;5.356;2023-02-26T06:29:20;3.53;;;0.57;;
24617;SDS011;12762;51.730;5.356;2023-02-26T06:31:47;2.67;;;0.63;;
24617;SDS011;12762;51.730;5.356;2023-02-26T06:34:14;7.47;;;0.60;;
24617;SDS011;12762;51.730;5.356;2023-02-26T06:36:44;2.03;;;0.67;;
24617;SDS011;12762;51.730;5.356;2023-02-26T06:39:11;5.47;;;0.60;;
24617;SDS011;12762;51.730;5.356;2023-02-26T06:41:38;5.13;;;0.70;;
24617;SDS011;12762;51.730;5.356;2023-02-26T06:44:05;3.83;;;0.83;;
24617;SDS011;12762;51.730;5.356;2023-02-26T06:46:32;3.50;;;0.57;;
24617;SDS011;12762;51.730;5.356;2023-02-26T06:48:59;5.97;;;0.90;;
24617;SDS011;12762;51.730;5.356;2023-02-26T06:51:26;3.50;;;0.60;;
24617;SDS011;12762;51.730;5.356;2023-02-26T06:53:53;6.70;;;1.20;;
24617;SDS011;12762;51.730;5.356;2023-02-26T06:56:20;4.20;;;0.80;;
24617;SDS011;12762;51.730;5.356;2023-02-26T06:58:49;2.13;;;0.67;;
24617;SDS011;12762;51.730;5.356;2023-02-26T07:01:19;2.20;;;0.50;;
24617;SDS011;12762;51.730;5.356;2023-02-26T07:03:46;2.17;;;0.50;;
24617;SDS011;12762;51.730;5.356;2023-02-26T07:06:13;4.20;;;0.60;;
24617;SDS011;12762;51.730;5.356;2023-02-26T07:09:00;5.57;;;0.60;;
24617;SDS011;12762;51.730;5.356;2023-02-26T07:11:28;2.93;;;0.63;;
24617;SDS011;12762;51.730;5.356;2023-02-26T07:13:54;2.43;;;0.50;;
24617;SDS011;12762;51.730;5.356;2023-02-26T07:16:21;4.93;;;1.00;;
24617;SDS011;12762;51.730;5.356;2023-02-26T07:18:48;5.13;;;0.77;;
24617;SDS011;12762;51.730;5.356;2023-02-26T07:21:15;3.27;;;0.90;;
24617;SDS011;12762;51.730;5.356;2023-02-26T07:23:42;5.77;;;0.80;;
24617;SDS011;12762;51.730;5.356;2023-02-26T07:26:09;6.37;;;0.80;;
24617;SDS011;12762;51.730;5.356;2023-02-26T07:28:36;1.50;;;0.43;;
24617;SDS011;12762;51.730;5.356;2023-02-26T07:31:03;4.83;;;0.80;;
24617;SDS011;12762;51.730;5.356;2023-02-26T07:33:30;1.57;;;0.40;;
24617;SDS011;12762;51.730;5.356;2023-02-26T07:35:57;8.13;;;0.70;;
24617;SDS011;12762;51.730;5.356;2023-02-26T07:38:24;4.30;;;0.50;;
24617;SDS011;12762;51.730;5.356;2023-02-26T07:40:53;6.33;;;0.70;;
24617;SDS011;12762;51.730;5.356;2023-02-26T07:43:22;2.67;;;0.50;;
24617;SDS011;12762;51.730;5.356;2023-02-26T07:45:50;7.00;;;0.70;;
24617;SDS011;12762;51.730;5.356;2023-02-26T07:48:17;5.17;;;0.73;;
24617;SDS011;12762;51.730;5.356;2023-02-26T07:50:45;4.30;;;0.77;;
24617;SDS011;12762;51.730;5.356;2023-02-26T07:53:12;5.27;;;0.93;;
24617;SDS011;12762;51.730;5.356;2023-02-26T07:55:39;5.30;;;0.77;;
24617;SDS011;12762;51.730;5.356;2023-02-26T07:58:09;3.47;;;0.63;;
24617;SDS011;12762;51.730;5.356;2023-02-26T08:00:36;7.83;;;0.73;;
24617;SDS011;12762;51.730;5.356;2023-02-26T08:03:09;2.70;;;0.70;;
24617;SDS011;12762;51.730;5.356;2023-02-26T08:05:36;1.13;;;0.50;;
24617;SDS011;12762;51.730;5.356;2023-02-26T08:08:03;3.37;;;0.77;;
24617;SDS011;12762;51.730;5.356;2023-02-26T08:10:29;3.20;;;0.60;;
24617;SDS011;12762;51.730;5.356;2023-02-26T08:12:56;3.87;;;0.63;;
24617;SDS011;12762;51.730;5.356;2023-02-26T08:15:23;5.17;;;0.70;;
24617;SDS011;12762;51.730;5.356;2023-02-26T08:17:53;2.17;;;0.70;;
24617;SDS011;12762;51.730;5.356;2023-02-26T08:20:20;2.30;;;0.70;;
24617;SDS011;12762;51.730;5.356;2023-02-26T08:22:47;3.80;;;0.90;;
24617;SDS011;12762;51.730;5.356;2023-02-26T08:25:15;1.60;;;0.40;;
24617;SDS011;12762;51.730;5.356;2023-02-26T08:27:45;5.27;;;0.70;;
24617;SDS011;12762;51.730;5.356;2023-02-26T08:30:12;6.33;;;0.90;;
24617;SDS011;12762;51.730;5.356;2023-02-26T08:32:39;5.27;;;1.10;;
24617;SDS011;12762;51.730;5.356;2023-02-26T08:35:08;4.03;;;0.80;;
24617;SDS011;12762;51.730;5.356;2023-02-26T08:37:35;4.37;;;1.30;;
24617;SDS011;12762;51.730;5.356;2023-02-26T08:40:04;3.57;;;0.93;;
24617;SDS011;12762;51.730;5.356;2023-02-26T08:42:33;5.00;;;0.83;;
24617;SDS011;12762;51.730;5.356;2023-02-26T08:45:00;5.27;;;1.00;;
24617;SDS011;12762;51.730;5.356;2023-02-26T08:47:27;1.83;;;0.67;;
24617;SDS011;12762;51.730;5.356;2023-02-26T08:49:54;2.97;;;0.80;;
24617;SDS011;12762;51.730;5.356;2023-02-26T08:52:21;2.73;;;0.60;;
24617;SDS011;12762;51.730;5.356;2023-02-26T08:54:48;4.93;;;0.90;;
24617;SDS011;12762;51.730;5.356;2023-02-26T08:57:15;4.20;;;0.67;;
24617;SDS011;12762;51.730;5.356;2023-02-26T08:59:42;3.33;;;0.60;;
24617;SDS011;12762;51.730;5.356;2023-02-26T09:02:10;2.30;;;0.73;;
24617;SDS011;12762;51.730;5.356;2023-02-26T09:04:37;4.50;;;0.50;;
24617;SDS011;12762;51.730;5.356;2023-02-26T09:07:04;2.63;;;0.57;;
24617;SDS011;12762;51.730;5.356;2023-02-26T09:09:31;5.33;;;0.93;;
24617;SDS011;12762;51.730;5.356;2023-02-26T09:11:58;4.77;;;0.87;;
24617;SDS011;12762;51.730;5.356;2023-02-26T09:14:25;2.10;;;0.63;;
24617;SDS011;12762;51.730;5.356;2023-02-26T09:16:52;3.67;;;0.67;;
24617;SDS011;12762;51.730;5.356;2023-02-26T09:19:19;4.37;;;0.70;;
24617;SDS011;12762;51.730;5.356;2023-02-26T09:21:48;3.83;;;0.57;;
24617;SDS011;12762;51.730;5.356;2023-02-26T09:24:15;3.57;;;0.67;;
24617;SDS011;12762;51.730;5.356;2023-02-26T09:26:42;3.20;;;0.50;;
24617;SDS011;12762;51.730;5.356;2023-02-26T09:29:18;3.20;;;0.60;;
24617;SDS011;12762;51.730;5.356;2023-02-26T09:31:45;4.47;;;1.23;;
24617;SDS011;12762;51.730;5.356;2023-02-26T09:34:14;3.30;;;0.53;;
24617;SDS011;12762;51.730;5.356;2023-02-26T09:36:41;7.30;;;0.70;;
24617;SDS011;12762;51.730;5.356;2023-02-26T09:39:09;2.00;;;0.63;;
24617;SDS011;12762;51.730;5.356;2023-02-26T09:41:37;3.00;;;0.80;;
24617;SDS011;12762;51.730;5.356;2023-02-26T09:44:16;4.10;;;0.70;;
24617;SDS011;12762;51.730;5.356;2023-02-26T09:49:33;3.73;;;0.50;;
24617;SDS011;12762;51.730;5.356;2023-02-26T09:54:55;2.87;;;0.60;;
24617;SDS011;12762;51.730;5.356;2023-02-26T09:59:56;2.47;;;0.57;;
24617;SDS011;12762;51.730;5.356;2023-02-26T10:02:39;3.40;;;0.60;;
24617;SDS011;12762;51.730;5.356;2023-02-26T10:05:27;1.47;;;0.30;;
24617;SDS011;12762;51.730;5.356;2023-02-26T10:08:09;3.03;;;0.70;;
24617;SDS011;12762;51.730;5.356;2023-02-26T10:16:28;2.40;;;0.30;;
24617;SDS011;12762;51.730;5.356;2023-02-26T10:19:00;2.50;;;0.60;;
24617;SDS011;12762;51.730;5.356;2023-02-26T10:21:36;3.67;;;0.60;;
24617;SDS011;12762;51.730;5.356;2023-02-26T10:24:13;1.23;;;0.40;;
24617;SDS011;12762;51.730;5.356;2023-02-26T10:26:47;5.20;;;0.53;;
24617;SDS011;12762;51.730;5.356;2023-02-26T10:32:25;3.43;;;0.83;;
24617;SDS011;12762;51.730;5.356;2023-02-26T10:35:11;1.87;;;0.30;;
24617;SDS011;12762;51.730;5.356;2023-02-26T10:37:55;2.27;;;0.50;;
24617;SDS011;12762;51.730;5.356;2023-02-26T10:40:42;2.23;;;0.67;;
24617;SDS011;12762;51.730;5.356;2023-02-26T10:43:21;2.43;;;0.40;;
24617;SDS011;12762;51.730;5.356;2023-02-26T10:46:11;2.20;;;0.40;;
24617;SDS011;12762;51.730;5.356;2023-02-26T10:52:04;2.13;;;0.40;;
24617;SDS011;12762;51.730;5.356;2023-02-26T10:58:09;3.00;;;0.53;;
24617;SDS011;12762;51.730;5.356;2023-02-26T11:00:41;2.57;;;0.30;;
24617;SDS011;12762;51.730;5.356;2023-02-26T11:03:12;1.83;;;0.37;;
24617;SDS011;12762;51.730;5.356;2023-02-26T11:05:43;4.60;;;0.60;;
24617;SDS011;12762;51.730;5.356;2023-02-26T11:08:22;0.83;;;0.40;;
24617;SDS011;12762;51.730;5.356;2023-02-26T11:10:57;2.20;;;0.40;;
24617;SDS011;12762;51.730;5.356;2023-02-26T11:13:32;4.97;;;0.50;;
24617;SDS011;12762;51.730;5.356;2023-02-26T11:16:07;1.37;;;0.40;;
24617;SDS011;12762;51.730;5.356;2023-02-26T11:18:45;3.53;;;0.43;;
24617;SDS011;12762;51.730;5.356;2023-02-26T11:21:20;4.23;;;0.43;;
24617;SDS011;12762;51.730;5.356;2023-02-26T11:24:03;2.73;;;0.43;;
24617;SDS011;12762;51.730;5.356;2023-02-26T11:26:34;2.43;;;0.67;;
24617;SDS011;12762;51.730;5.356;2023-02-26T11:29:03;0.97;;;0.53;;
24617;SDS011;12762;51.730;5.356;2023-02-26T11:31:31;1.20;;;0.23;;
24617;SDS011;12762;51.730;5.356;2023-02-26T11:34:01;2.40;;;0.40;;
24617;SDS011;12762;51.730;5.356;2023-02-26T11:36:31;1.23;;;0.40;;
24617;SDS011;12762;51.730;5.356;2023-02-26T11:39:21;0.90;;;0.20;;
24617;SDS011;12762;51.730;5.356;2023-02-26T11:41:56;1.30;;;0.47;;
24617;SDS011;12762;51.730;5.356;2023-02-26T11:44:35;1.77;;;0.50;;
24617;SDS011;12762;51.730;5.356;2023-02-26T11:47:14;3.50;;;0.50;;
24617;SDS011;12762;51.730;5.356;2023-02-26T11:49:45;2.40;;;0.60;;
24617;SDS011;12762;51.730;5.356;2023-02-26T11:52:21;3.10;;;0.40;;
24617;SDS011;12762;51.730;5.356;2023-02-26T11:55:04;1.83;;;0.47;;
24617;SDS011;12762;51.730;5.356;2023-02-26T11:57:42;3.63;;;0.40;;
24617;SDS011;12762;51.730;5.356;2023-02-26T12:00:19;2.37;;;0.53;;
24617;SDS011;12762;51.730;5.356;2023-02-26T12:02:55;2.33;;;0.40;;
24617;SDS011;12762;51.730;5.356;2023-02-26T12:05:27;2.33;;;0.50;;
24617;SDS011;12762;51.730;5.356;2023-02-26T12:07:54;2.43;;;0.70;;
24617;SDS011;12762;51.730;5.356;2023-02-26T12:10:25;1.90;;;0.50;;
24617;SDS011;12762;51.730;5.356;2023-02-26T12:13:18;4.40;;;0.73;;
24617;SDS011;12762;51.730;5.356;2023-02-26T12:16:10;3.03;;;0.57;;
24617;SDS011;12762;51.730;5.356;2023-02-26T12:19:06;2.77;;;0.30;;
24617;SDS011;12762;51.730;5.356;2023-02-26T12:24:19;4.47;;;0.50;;
24617;SDS011;12762;51.730;5.356;2023-02-26T12:35:38;2.63;;;0.50;;
24617;SDS011;12762;51.730;5.356;2023-02-26T12:43:44;1.30;;;0.63;;
24617;SDS011;12762;51.730;5.356;2023-02-26T13:19:12;2.27;;;0.50;;
24617;SDS011;12762;51.730;5.356;2023-02-26T13:27:13;1.73;;;0.50;;
24617;SDS011;12762;51.730;5.356;2023-02-26T13:29:44;3.67;;;0.60;;
24617;SDS011;12762;51.730;5.356;2023-02-26T13:32:24;4.63;;;0.50;;
24617;SDS011;12762;51.730;5.356;2023-02-26T13:34:56;2.10;;;0.40;;
24617;SDS011;12762;51.730;5.356;2023-02-26T13:37:34;2.93;;;0.53;;
24617;SDS011;12762;51.730;5.356;2023-02-26T13:56:41;1.20;;;0.30;;
24617;SDS011;12762;51.730;5.356;2023-02-26T14:10:14;2.80;;;0.60;;
24617;SDS011;12762;51.730;5.356;2023-02-26T14:13:15;1.93;;;0.30;;
24617;SDS011;12762;51.730;5.356;2023-02-26T14:26:32;0.67;;;0.20;;
24617;SDS011;12762;51.730;5.356;2023-02-26T14:31:46;2.53;;;0.30;;
24617;SDS011;12762;51.730;5.356;2023-02-26T14:34:22;1.70;;;0.50;;
24617;SDS011;12762;51.730;5.356;2023-02-26T14:36:53;0.93;;;0.40;;
24617;SDS011;12762;51.730;5.356;2023-02-26T14:39:39;0.60;;;0.20;;
24617;SDS011;12762;51.730;5.356;2023-02-26T14:44:46;0.80;;;0.20;;
24617;SDS011;12762;51.730;5.356;2023-02-26T14:47:19;1.97;;;0.40;;
24617;SDS011;12762;51.730;5.356;2023-02-26T14:49:47;0.80;;;0.20;;
24617;SDS011;12762;51.730;5.356;2023-02-26T14:55:17;1.20;;;0.53;;
24617;SDS011;12762;51.730;5.356;2023-02-26T15:00:51;3.20;;;0.30;;
24617;SDS011;12762;51.730;5.356;2023-02-26T15:06:39;1.90;;;0.23;;
24617;SDS011;12762;51.730;5.356;2023-02-26T15:14:47;0.83;;;0.20;;
24617;SDS011;12762;51.730;5.356;2023-02-26T15:23:33;1.33;;;0.30;;
24617;SDS011;12762;51.730;5.356;2023-02-26T15:26:05;2.43;;;0.53;;
24617;SDS011;12762;51.730;5.356;2023-02-26T15:28:37;3.53;;;0.40;;
24617;SDS011;12762;51.730;5.356;2023-02-26T15:31:09;1.77;;;0.40;;
24617;SDS011;12762;51.730;5.356;2023-02-26T15:33:39;0.50;;;0.30;;
24617;SDS011;12762;51.730;5.356;2023-02-26T15:36:13;1.00;;;0.20;;
24617;SDS011;12762;51.730;5.356;2023-02-26T15:38:48;0.70;;;0.20;;
24617;SDS011;12762;51.730;5.356;2023-02-26T15:41:18;0.83;;;0.20;;
24617;SDS011;12762;51.730;5.356;2023-02-26T15:43:50;0.50;;;0.30;;
24617;SDS011;12762;51.730;5.356;2023-02-26T15:46:22;0.93;;;0.30;;
24617;SDS011;12762;51.730;5.356;2023-02-26T15:48:54;1.23;;;0.40;;
24617;SDS011;12762;51.730;5.356;2023-02-26T15:51:25;1.77;;;0.20;;
24617;SDS011;12762;51.730;5.356;2023-02-26T15:53:53;4.47;;;0.30;;
24617;SDS011;12762;51.730;5.356;2023-02-26T15:56:24;0.73;;;0.20;;
24617;SDS011;12762;51.730;5.356;2023-02-26T15:58:59;2.13;;;0.40;;
24617;SDS011;12762;51.730;5.356;2023-02-26T16:01:28;2.60;;;0.60;;
24617;SDS011;12762;51.730;5.356;2023-02-26T16:03:57;3.03;;;0.47;;
24617;SDS011;12762;51.730;5.356;2023-02-26T16:06:29;0.63;;;0.30;;
24617;SDS011;12762;51.730;5.356;2023-02-26T16:08:58;0.97;;;0.37;;
24617;SDS011;12762;51.730;5.356;2023-02-26T16:11:30;1.60;;;0.40;;
24617;SDS011;12762;51.730;5.356;2023-02-26T16:14:00;1.17;;;0.27;;
24617;SDS011;12762;51.730;5.356;2023-02-26T16:16:40;1.07;;;0.30;;
24617;SDS011;12762;51.730;5.356;2023-02-26T16:19:16;1.87;;;0.50;;
24617;SDS011;12762;51.730;5.356;2023-02-26T16:21:46;2.13;;;0.40;;
24617;SDS011;12762;51.730;5.356;2023-02-26T16:24:15;1.60;;;0.40;;
24617;SDS011;12762;51.730;5.356;2023-02-26T16:26:48;0.33;;;0.20;;
24617;SDS011;12762;51.730;5.356;2023-02-26T16:29:20;2.23;;;0.40;;
24617;SDS011;12762;51.730;5.356;2023-02-26T16:31:51;0.77;;;0.20;;
24617;SDS011;12762;51.730;5.356;2023-02-26T16:39:51;1.37;;;0.30;;
24617;SDS011;12762;51.730;5.356;2023-02-26T16:48:16;1.07;;;0.20;;
24617;SDS011;12762;51.730;5.356;2023-02-26T16:50:51;1.90;;;0.40;;
24617;SDS011;12762;51.730;5.356;2023-02-26T16:53:23;2.13;;;0.37;;
24617;SDS011;12762;51.730;5.356;2023-02-26T16:55:58;1.03;;;0.30;;
24617;SDS011;12762;51.730;5.356;2023-02-26T16:58:26;3.20;;;0.57;;
24617;SDS011;12762;51.730;5.356;2023-02-26T17:01:03;2.40;;;0.80;;
24617;SDS011;12762;51.730;5.356;2023-02-26T17:03:33;8.23;;;2.20;;
24617;SDS011;12762;51.730;5.356;2023-02-26T17:06:03;5.30;;;1.60;;
24617;SDS011;12762;51.730;5.356;2023-02-26T17:08:35;1.73;;;0.63;;
24617;SDS011;12762;51.730;5.356;2023-02-26T17:11:31;3.73;;;0.63;;
24617;SDS011;12762;51.730;5.356;2023-02-26T17:14:25;3.80;;;0.80;;
24617;SDS011;12762;51.730;5.356;2023-02-26T17:16:52;1.67;;;0.63;;
24617;SDS011;12762;51.730;5.356;2023-02-26T17:19:19;1.23;;;0.47;;
24617;SDS011;12762;51.730;5.356;2023-02-26T17:21:47;2.40;;;0.80;;
24617;SDS011;12762;51.730;5.356;2023-02-26T17:24:25;2.40;;;0.53;;
24617;SDS011;12762;51.730;5.356;2023-02-26T17:26:57;4.37;;;1.00;;
24617;SDS011;12762;51.730;5.356;2023-02-26T17:29:32;2.40;;;0.93;;
24617;SDS011;12762;51.730;5.356;2023-02-26T17:32:15;3.03;;;0.70;;
24617;SDS011;12762;51.730;5.356;2023-02-26T17:34:45;8.13;;;1.33;;
24617;SDS011;12762;51.730;5.356;2023-02-26T17:37:12;3.63;;;0.90;;
24617;SDS011;12762;51.730;5.356;2023-02-26T17:39:43;6.17;;;1.20;;
24617;SDS011;12762;51.730;5.356;2023-02-26T17:42:14;1.60;;;0.90;;
24617;SDS011;12762;51.730;5.356;2023-02-26T17:44:44;3.23;;;0.90;;
24617;SDS011;12762;51.730;5.356;2023-02-26T17:47:18;4.20;;;0.80;;
24617;SDS011;12762;51.730;5.356;2023-02-26T17:49:46;2.93;;;0.57;;
24617;SDS011;12762;51.730;5.356;2023-02-26T17:52:13;2.13;;;0.80;;
24617;SDS011;12762;51.730;5.356;2023-02-26T17:54:41;2.07;;;0.80;;
24617;SDS011;12762;51.730;5.356;2023-02-26T17:57:13;4.87;;;1.20;;
24617;SDS011;12762;51.730;5.356;2023-02-26T17:59:43;2.83;;;0.80;;
24617;SDS011;12762;51.730;5.356;2023-02-26T18:02:16;2.43;;;0.80;;
24617;SDS011;12762;51.730;5.356;2023-02-26T18:04:47;4.27;;;1.00;;
24617;SDS011;12762;51.730;5.356;2023-02-26T18:07:15;10.37;;;1.20;;
24617;SDS011;12762;51.730;5.356;2023-02-26T18:09:43;4.23;;;0.93;;
24617;SDS011;12762;51.730;5.356;2023-02-26T18:12:15;3.27;;;0.90;;
24617;SDS011;12762;51.730;5.356;2023-02-26T18:14:43;1.17;;;0.50;;
24617;SDS011;12762;51.730;5.356;2023-02-26T18:19:58;2.73;;;0.90;;
24617;SDS011;12762;51.730;5.356;2023-02-26T18:22:25;3.47;;;0.70;;
24617;SDS011;12762;51.730;5.356;2023-02-26T18:24:53;3.57;;;0.80;;
24617;SDS011;12762;51.730;5.356;2023-02-26T18:27:21;5.30;;;1.07;;
24617;SDS011;12762;51.730;5.356;2023-02-26T18:29:49;1.80;;;0.40;;
24617;SDS011;12762;51.730;5.356;2023-02-26T18:32:19;2.67;;;0.80;;